Fort Payne, AL

7:02 AM CST on November 12, 2019 (GMT -0600)
Fort Payne

Weather History for K4A9 - October, 2019

Change the Weather History Date:

Tuesday, October 22, 2019

  Actual Average (KRMG) Record (KRMG)
Temperature  
Mean Temperature 56 °F -  
Max Temperature 68 °F 71 °F 84 °F (2001)
Min Temperature 44 °F 46 °F 33 °F (2011)
Degree Days  
Heating Degree Days 8    
Growing Degree Days 6 (Base 50)    
Moisture  
Dew Point 48 °F    
Average Humidity 70    
Maximum Humidity 99    
Minimum Humidity 33    
Precipitation  
Precipitation 0.01 in - - ()
Sea Level Pressure  
Sea Level Pressure 29.99 in    
Wind  
Wind Speed 6 mph (West)    
Max Wind Speed 20 mph    
Max Gust Speed 28 mph    
Visibility 10 miles    
Events Rain    
Averages and records for this station are not official NWS values.
T = Trace of Precipitation, MM = Missing Value Source: NWS Daily Summary

Daily Weather History Graph

Daily Weather History Graph

Search for Another Location

Airport or City:

Astronomy

Oct. 22, 2019 Rise Set
Actual Time 6:54 AM CDT 6:00 PM CDT
Civil Twilight 6:28 AM CDT 6:25 PM CDT
Nautical Twilight 5:59 AM CDT 6:55 PM CDT
Astronomical Twilight 5:29 AM CDT 7:24 PM CDT
Moon 12:24 AM CDT (10/22) 2:49 PM CDT (10/22)
Length of Visible Light 11h 57m
Length of Day
11h 06m
Last Quarter, 37% of the Moon is Illuminated
Oct 22
Last Quarter
Oct 27
New
Nov 4
First Quarter
Nov 12
Full
Nov 19
Last Quarter

Hourly Weather History & Observations

Time (CDT) Temp. Windchill Dew Point Humidity Pressure Visibility Wind Dir Wind Speed Gust Speed Precip Events Conditions
12:15 AM 66.7 °F - 64.8 °F 93% 29.84 in 10.0 mi SSW 3.5 mph - N/A Rain Light Rain
12:35 AM 66.7 °F - 64.8 °F 93% 29.84 in 10.0 mi SSW 6.9 mph - N/A   Overcast
12:55 AM 66.9 °F - 64.6 °F 92% 29.85 in 10.0 mi SSW 5.8 mph - N/A   Overcast
1:15 AM 66.9 °F - 64.6 °F 92% 29.86 in 10.0 mi West 17.3 mph - N/A   Overcast
1:35 AM 63.5 °F - 60.8 °F 91% 29.90 in 10.0 mi West 16.1 mph 27.6 mph 0.01 in Rain Light Rain
1:55 AM 62.1 °F - 59.7 °F 92% 29.92 in 10.0 mi West 3.5 mph - 0.01 in Rain Light Rain
2:15 AM 60.6 °F - 56.8 °F 87% 29.92 in 10.0 mi West 9.2 mph 19.6 mph N/A   Overcast
2:35 AM 59.7 °F - 55.4 °F 86% 29.90 in 10.0 mi NW 4.6 mph - N/A   Overcast
2:55 AM 59.5 °F - 55.4 °F 86% 29.89 in 10.0 mi Calm Calm - N/A   Overcast
3:15 AM 59.0 °F - 56.5 °F 91% 29.89 in 10.0 mi WNW 3.5 mph - N/A   Overcast
3:35 AM 58.6 °F - 56.7 °F 93% 29.90 in 10.0 mi Calm Calm - N/A   Overcast
3:55 AM 59.0 °F - 55.8 °F 89% 29.90 in 10.0 mi North 3.5 mph - N/A   Overcast
4:15 AM 58.6 °F - 55.2 °F 88% 29.91 in 10.0 mi NNW 4.6 mph - N/A   Overcast
4:35 AM 58.6 °F - 55.6 °F 90% 29.92 in 10.0 mi Calm Calm - N/A   Overcast
4:55 AM 58.6 °F - 55.4 °F 89% 29.92 in 10.0 mi West 3.5 mph - N/A   Overcast
5:15 AM 58.6 °F - 55.0 °F 88% 29.93 in 10.0 mi Calm Calm - N/A   Overcast
5:35 AM 58.3 °F - 55.2 °F 90% 29.94 in 10.0 mi West 4.6 mph - N/A   Overcast
5:55 AM 58.3 °F - 54.9 °F 88% 29.95 in 10.0 mi WSW 3.5 mph - N/A   Overcast
6:15 AM 56.8 °F - 54.3 °F 91% 29.95 in 10.0 mi WSW 4.6 mph - N/A   Scattered Clouds
6:35 AM 55.9 °F - 54.1 °F 94% 29.95 in 10.0 mi Calm Calm - N/A   Clear
7:15 AM 53.6 °F - 53.2 °F 99% 29.96 in 10.0 mi Calm Calm - N/A   Clear
7:35 AM 52.7 °F - 52.5 °F 99% 29.97 in 1.8 mi West 3.5 mph - N/A   Mist
7:55 AM 54.9 °F - 54.1 °F 97% 29.98 in 10.0 mi Calm Calm - N/A   Clear
8:15 AM 56.3 °F - 54.9 °F 95% 29.99 in 10.0 mi Calm Calm - N/A   Clear
8:35 AM 58.3 °F - 54.9 °F 88% 30.00 in 10.0 mi SW 4.6 mph - N/A   Clear
8:55 AM 59.5 °F - 54.3 °F 83% 30.00 in 10.0 mi WSW 8.1 mph - N/A   Clear
9:15 AM 60.4 °F - 52.9 °F 76% 30.01 in 10.0 mi West 6.9 mph - N/A   Clear
9:35 AM 61.2 °F - 51.1 °F 69% 30.00 in 10.0 mi WSW 6.9 mph - N/A   Clear
9:55 AM 62.1 °F - 49.8 °F 64% 30.00 in 10.0 mi SW 6.9 mph - N/A   Clear
10:15 AM 63.3 °F - 49.3 °F 60% 30.01 in 10.0 mi West 9.2 mph - N/A   Clear
10:35 AM 63.3 °F - 46.4 °F 54% 30.01 in 10.0 mi WNW 11.5 mph 27.6 mph N/A   Clear
10:55 AM 64.0 °F - 47.5 °F 55% 30.01 in 10.0 mi WNW 8.1 mph - N/A   Clear
11:15 AM 64.0 °F - 44.8 °F 50% 30.01 in 10.0 mi West 11.5 mph 19.6 mph N/A   Clear
11:35 AM 64.6 °F - 44.8 °F 49% 30.01 in 10.0 mi WNW 10.4 mph - N/A   Clear
11:55 AM 65.5 °F - 42.3 °F 43% 30.01 in 10.0 mi WSW 15.0 mph - N/A   Clear
12:15 PM 66.2 °F - 39.4 °F 37% 30.00 in 10.0 mi WSW 12.7 mph - N/A   Clear
12:35 PM 66.6 °F - 39.6 °F 37% 29.99 in 10.0 mi West 12.7 mph 18.4 mph N/A   Clear
12:55 PM 67.1 °F - 39.4 °F 36% 29.98 in 10.0 mi WSW 12.7 mph 18.4 mph N/A   Clear
1:15 PM 67.6 °F - 38.8 °F 35% 29.98 in 10.0 mi West 13.8 mph 20.7 mph N/A   Clear
1:35 PM 67.5 °F - 39.0 °F 35% 29.97 in 10.0 mi West 11.5 mph 19.6 mph N/A   Clear
1:55 PM 67.8 °F - 37.8 °F 33% 29.97 in 10.0 mi SW 19.6 mph 24.2 mph N/A   Clear
2:15 PM 68.4 °F - 38.5 °F 33% 29.97 in 10.0 mi West 18.4 mph - N/A   Clear
2:35 PM 67.8 °F - 37.4 °F 33% 29.97 in 10.0 mi WSW 17.3 mph 24.2 mph N/A   Clear
2:55 PM 67.8 °F - 37.8 °F 33% 29.97 in 10.0 mi West 16.1 mph - N/A   Clear
3:15 PM 67.6 °F - 37.8 °F 33% 29.97 in 10.0 mi WNW 16.1 mph - N/A   Clear
3:35 PM 67.6 °F - 37.9 °F 34% 29.98 in 10.0 mi WSW 15.0 mph 20.7 mph N/A   Clear
3:55 PM 67.1 °F - 39.0 °F 36% 29.98 in 10.0 mi West 12.7 mph - N/A   Clear
4:15 PM 66.9 °F - 39.6 °F 37% 29.98 in 10.0 mi WNW 12.7 mph - N/A   Clear
4:35 PM 66.2 °F - 39.7 °F 38% 29.98 in 10.0 mi WNW 11.5 mph - N/A   Clear
4:55 PM 65.5 °F - 40.1 °F 39% 29.98 in 10.0 mi West 9.2 mph - N/A   Clear
5:15 PM 64.6 °F - 40.1 °F 41% 29.99 in 10.0 mi WNW 6.9 mph - N/A   Clear
5:35 PM 63.0 °F - 41.4 °F 45% 29.99 in 10.0 mi West 6.9 mph - N/A   Clear
5:55 PM 61.3 °F - 39.7 °F 45% 30.00 in 10.0 mi West 9.2 mph - N/A   Clear
6:15 PM 58.8 °F - 40.6 °F 51% 30.01 in 10.0 mi WSW 6.9 mph - N/A   Clear
6:35 PM 57.6 °F - 41.5 °F 55% 30.02 in 10.0 mi West 3.5 mph - N/A   Clear
6:55 PM 55.6 °F - 42.4 °F 61% 30.03 in 10.0 mi Calm Calm - N/A   Clear
7:15 PM 53.4 °F - 43.9 °F 70% 30.04 in 10.0 mi ESE 3.5 mph - N/A   Clear
7:35 PM 52.0 °F - 45.1 °F 77% 30.04 in 10.0 mi SW 3.5 mph - N/A   Clear
7:55 PM 50.9 °F - 44.6 °F 79% 30.04 in 10.0 mi Calm Calm - N/A   Clear
8:15 PM 50.7 °F - 44.6 °F 80% 30.05 in 10.0 mi Calm Calm - N/A   Clear
8:35 PM 49.1 °F - 44.8 °F 85% 30.06 in 10.0 mi SW 3.5 mph - N/A   Clear
8:55 PM 49.3 °F - 44.4 °F 83% 30.07 in 10.0 mi SSW 3.5 mph - N/A   Clear
9:15 PM 48.4 °F - 44.1 °F 85% 30.08 in 10.0 mi Calm Calm - N/A   Clear
9:35 PM 47.8 °F - 44.6 °F 89% 30.09 in 10.0 mi WSW 3.5 mph - N/A   Clear
9:55 PM 47.8 °F - 44.2 °F 87% 30.10 in 10.0 mi SW 3.5 mph - N/A   Clear
10:15 PM 47.8 °F - 43.9 °F 86% 30.10 in 10.0 mi SW 3.5 mph - N/A   Clear
10:35 PM 46.0 °F - 43.9 °F 92% 30.11 in 10.0 mi Calm Calm - N/A   Clear
10:55 PM 45.7 °F - 43.3 °F 92% 30.11 in 10.0 mi Calm Calm - N/A   Clear
11:15 PM 45.3 °F - 43.5 °F 93% 30.11 in 10.0 mi Calm Calm - N/A   Clear
11:35 PM 45.0 °F - 43.5 °F 95% 30.11 in 10.0 mi Calm Calm - N/A   Clear
11:55 PM 44.2 °F 42.7 °F 42.8 °F 95% 30.11 in 10.0 mi ENE 3.5 mph - N/A   Clear